Terminal Aerodrome Forecast
Issued by NWS

Home | Current Version | Previous Version | Text Only | Print | Product List | Glossary On
Versions: 1 2 3 4 5 6 7 8 9 10 11 12 13 14 15 16 17 18
000
FTUS46 KMTR 192100 AAA
TAFOAK
TAF AMD
KOAK 192109Z 1921/2024 16012G18KT P6SM -RA BKN025 OVC050
      TEMPO 1921/2001 4SM RA BR OVC025
     FM200300 16004KT P6SM FEW030 SCT060 BKN100
     FM201200 11003KT P6SM FEW040 SCT100
     FM202100 23005KT P6SM FEW020 SCT030 BKN050=

USA.gov is the U.S. government's official web portal to all federal, state and local government web resources and services.